Time,TemperatureF,DewpointF,PressureIn,WindDirection,WindDirectionDegrees,WindSpeedMPH,WindSpeedGustMPH,Humidity,HourlyPrecipIn,Conditions,Clouds,dailyrainin,SolarRadiationWatts/m^2,SoftwareType,DateUTC
2013-02-20 00:11:00,34.0,18.0,-100.00,WNW,287,18.0,42.0,51,0.00,,,0.00,0.000000,,2013-02-20 08:11:00,
2013-02-20 00:21:00,34.0,18.0,-100.00,WNW,287,18.0,42.0,51,0.00,,,0.00,0.000000,,2013-02-20 08:21:00,
2013-02-20 00:52:00,35.0,14.0,-100.00,WNW,300,14.0,34.0,42,0.00,,,0.00,0.000000,,2013-02-20 08:52:00,
2013-02-20 01:01:00,35.0,14.0,-100.00,WNW,300,14.0,34.0,42,0.00,,,0.00,0.000000,,2013-02-20 09:01:00,
2013-02-20 01:11:00,35.0,14.0,-100.00,WNW,300,14.0,34.0,42,0.00,,,0.00,0.000000,,2013-02-20 09:11:00,
2013-02-20 01:21:00,35.0,14.0,-100.00,WNW,300,14.0,34.0,42,0.00,,,0.00,0.000000,,2013-02-20 09:21:00,
2013-02-20 01:52:00,34.0,13.0,-100.00,West,276,11.0,28.0,41,0.00,,,0.00,0.000000,,2013-02-20 09:52:00,
2013-02-20 02:01:00,34.0,13.0,-100.00,West,276,11.0,28.0,41,0.00,,,0.00,0.000000,,2013-02-20 10:01:00,
2013-02-20 02:12:00,34.0,13.0,-100.00,West,276,11.0,28.0,41,0.00,,,0.00,0.000000,,2013-02-20 10:12:00,
2013-02-20 02:21:00,34.0,13.0,-100.00,West,276,11.0,28.0,41,0.00,,,0.00,0.000000,,2013-02-20 10:21:00,
2013-02-20 02:52:00,34.0,13.0,-100.00,WNW,288,12.0,23.0,41,0.00,,,0.00,0.000000,,2013-02-20 10:52:00,
2013-02-20 03:02:00,34.0,13.0,-100.00,WNW,288,12.0,23.0,41,0.00,,,0.00,0.000000,,2013-02-20 11:02:00,
2013-02-20 03:11:00,34.0,13.0,-100.00,WNW,288,12.0,23.0,41,0.00,,,0.00,0.000000,,2013-02-20 11:11:00,
2013-02-20 03:21:00,34.0,13.0,-100.00,WNW,288,12.0,23.0,41,0.00,,,0.00,0.000000,,2013-02-20 11:21:00,
2013-02-20 03:52:00,36.0,17.0,-100.00,SSW,203,15.0,30.0,46,0.00,,,0.00,0.000000,,2013-02-20 11:52:00,
2013-02-20 04:01:00,36.0,17.0,-100.00,SSW,203,15.0,30.0,46,0.00,,,0.00,0.000000,,2013-02-20 12:01:00,
2013-02-20 04:12:00,36.0,17.0,-100.00,SSW,203,15.0,30.0,46,0.00,,,0.00,0.000000,,2013-02-20 12:12:00,
2013-02-20 04:21:00,36.0,17.0,-100.00,SSW,203,15.0,30.0,46,0.00,,,0.00,0.000000,,2013-02-20 12:21:00,
2013-02-20 04:53:00,36.0,17.0,-100.00,SW,235,10.0,29.0,45,0.00,,,0.00,0.000000,,2013-02-20 12:53:00,
2013-02-20 05:01:00,36.0,17.0,-100.00,SW,235,10.0,29.0,45,0.00,,,0.00,0.000000,,2013-02-20 13:01:00,
2013-02-20 05:11:00,36.0,17.0,-100.00,SW,235,10.0,29.0,45,0.00,,,0.00,0.000000,,2013-02-20 13:11:00,
2013-02-20 05:22:00,36.0,17.0,-100.00,SW,235,10.0,29.0,45,0.00,,,0.00,0.000000,,2013-02-20 13:22:00,
2013-02-20 06:52:00,36.0,19.0,-100.00,SW,217,16.0,37.0,50,-99.99,,,0.00,0.000000,,2013-02-20 14:52:00,
2013-02-20 07:01:00,36.0,19.0,-100.00,SW,217,16.0,37.0,50,-99.99,,,0.00,0.000000,,2013-02-20 15:01:00,
2013-02-20 07:11:00,36.0,19.0,-100.00,SW,217,16.0,37.0,50,-99.99,,,0.00,0.000000,,2013-02-20 15:11:00,
2013-02-20 07:22:00,36.0,19.0,-100.00,SW,217,16.0,37.0,50,-99.99,,,0.00,0.000000,,2013-02-20 15:22:00,
2013-02-20 07:52:00,38.0,18.0,-100.00,SSW,210,16.0,41.0,44,0.00,,,0.00,37.000000,,2013-02-20 15:52:00,
2013-02-20 08:01:00,38.0,18.0,-100.00,SSW,210,16.0,41.0,44,0.00,,,0.00,37.000000,,2013-02-20 16:01:00,
2013-02-20 08:11:00,38.0,18.0,-100.00,SSW,210,16.0,41.0,44,0.00,,,0.00,37.000000,,2013-02-20 16:11:00,
2013-02-20 08:21:00,38.0,18.0,-100.00,SSW,210,16.0,41.0,44,0.00,,,0.00,37.000000,,2013-02-20 16:21:00,
2013-02-20 08:52:00,42.0,17.0,-100.00,SW,233,11.0,35.0,36,0.00,,,0.00,293.000000,,2013-02-20 16:52:00,
2013-02-20 09:01:00,42.0,17.0,-100.00,SW,233,11.0,35.0,36,0.00,,,0.00,293.000000,,2013-02-20 17:01:00,
2013-02-20 09:11:00,42.0,17.0,-100.00,SW,233,11.0,35.0,36,0.00,,,0.00,293.000000,,2013-02-20 17:11:00,
2013-02-20 09:21:00,42.0,17.0,-100.00,SW,233,11.0,35.0,36,0.00,,,0.00,293.000000,,2013-02-20 17:21:00,
2013-02-20 09:52:00,43.0,17.0,-100.00,SSW,201,9.0,33.0,34,0.00,,,0.00,347.000000,,2013-02-20 17:52:00,
2013-02-20 10:02:00,43.0,17.0,-100.00,SSW,201,9.0,33.0,34,0.00,,,0.00,347.000000,,2013-02-20 18:02:00,
2013-02-20 10:11:00,43.0,17.0,-100.00,SSW,201,9.0,33.0,34,0.00,,,0.00,347.000000,,2013-02-20 18:11:00,
2013-02-20 10:21:00,43.0,17.0,-100.00,SSW,201,9.0,33.0,34,0.00,,,0.00,347.000000,,2013-02-20 18:21:00,
2013-02-20 10:52:00,48.0,14.0,-100.00,South,187,7.0,27.0,25,0.00,,,0.00,776.000000,,2013-02-20 18:52:00,
2013-02-20 11:01:00,48.0,14.0,-100.00,South,187,7.0,27.0,25,0.00,,,0.00,776.000000,,2013-02-20 19:01:00,
2013-02-20 11:11:00,48.0,14.0,-100.00,South,187,7.0,27.0,25,0.00,,,0.00,776.000000,,2013-02-20 19:11:00,
2013-02-20 11:21:00,48.0,14.0,-100.00,South,187,7.0,27.0,25,0.00,,,0.00,776.000000,,2013-02-20 19:21:00,
2013-02-20 11:52:00,51.0,11.0,-100.00,SSW,193,9.0,31.0,20,0.00,,,0.00,819.000000,,2013-02-20 19:52:00,
2013-02-20 12:01:00,51.0,11.0,-100.00,SSW,193,9.0,31.0,20,0.00,,,0.00,819.000000,,2013-02-20 20:01:00,
2013-02-20 12:11:00,51.0,11.0,-100.00,SSW,193,9.0,31.0,20,0.00,,,0.00,819.000000,,2013-02-20 20:11:00,
2013-02-20 12:21:00,51.0,11.0,-100.00,SSW,193,9.0,31.0,20,0.00,,,0.00,819.000000,,2013-02-20 20:21:00,
2013-02-20 12:51:00,52.0,10.0,-100.00,South,178,8.0,22.0,18,0.00,,,0.00,993.000000,,2013-02-20 20:51:00,
2013-02-20 13:01:00,52.0,10.0,-100.00,South,178,8.0,22.0,18,0.00,,,0.00,993.000000,,2013-02-20 21:01:00,
2013-02-20 13:11:00,52.0,10.0,-100.00,South,178,8.0,22.0,18,0.00,,,0.00,993.000000,,2013-02-20 21:11:00,
2013-02-20 13:21:00,52.0,10.0,-100.00,South,178,8.0,22.0,18,0.00,,,0.00,993.000000,,2013-02-20 21:21:00,
2013-02-20 13:52:00,54.0,9.0,-100.00,South,179,6.0,31.0,16,0.00,,,0.00,972.000000,,2013-02-20 21:52:00,
2013-02-20 14:01:00,54.0,9.0,-100.00,South,179,6.0,31.0,16,0.00,,,0.00,972.000000,,2013-02-20 22:01:00,
2013-02-20 14:21:00,54.0,9.0,-100.00,South,179,6.0,31.0,16,0.00,,,0.00,972.000000,,2013-02-20 22:21:00,
2013-02-20 15:12:00,53.0,4.0,-100.00,South,188,7.0,25.0,13,0.00,,,0.00,856.000000,,2013-02-20 23:12:00,
2013-02-20 15:22:00,53.0,4.0,-100.00,South,188,7.0,25.0,13,0.00,,,0.00,856.000000,,2013-02-20 23:22:00,
2013-02-20 15:52:00,55.0,7.0,-100.00,SSW,199,3.0,23.0,14,0.00,,,0.00,668.000000,,2013-02-20 23:52:00,
2013-02-20 16:02:00,55.0,7.0,-100.00,SSW,199,3.0,23.0,14,0.00,,,0.00,668.000000,,2013-02-21 00:02:00,
2013-02-20 16:52:00,47.0,11.0,-100.00,NW,306,12.0,21.0,23,0.00,,,0.00,417.000000,,2013-02-21 00:52:00,
2013-02-20 17:01:00,47.0,11.0,-100.00,NW,306,12.0,21.0,23,0.00,,,0.00,417.000000,,2013-02-21 01:01:00,
2013-02-20 17:11:00,47.0,11.0,-100.00,NW,306,12.0,21.0,23,0.00,,,0.00,417.000000,,2013-02-21 01:11:00,
2013-02-20 17:21:00,47.0,11.0,-100.00,NW,306,12.0,21.0,23,0.00,,,0.00,417.000000,,2013-02-21 01:21:00,
2013-02-20 17:52:00,46.0,5.0,-100.00,WSW,241,16.0,30.0,18,0.00,,,0.00,89.000000,,2013-02-21 01:52:00,
2013-02-20 18:01:00,46.0,5.0,-100.00,WSW,241,16.0,30.0,18,0.00,,,0.00,89.000000,,2013-02-21 02:01:00,
2013-02-20 19:01:00,45.0,6.0,-100.00,SSW,213,9.0,30.0,20,0.00,,,0.00,3.000000,,2013-02-21 03:01:00,
2013-02-20 19:52:00,43.0,10.0,-100.00,SW,231,4.0,13.0,26,0.00,,,0.00,0.000000,,2013-02-21 03:52:00,
2013-02-20 20:01:00,43.0,10.0,-100.00,SW,231,4.0,13.0,26,0.00,,,0.00,0.000000,,2013-02-21 04:01:00,
2013-02-20 20:11:00,43.0,10.0,-100.00,SW,231,4.0,13.0,26,0.00,,,0.00,0.000000,,2013-02-21 04:11:00,
2013-02-20 20:21:00,43.0,10.0,-100.00,SW,231,4.0,13.0,26,0.00,,,0.00,0.000000,,2013-02-21 04:21:00,
2013-02-20 20:52:00,43.0,9.0,-100.00,WSW,238,10.0,19.0,24,0.00,,,0.00,0.000000,,2013-02-21 04:52:00,
2013-02-20 21:02:00,43.0,9.0,-100.00,WSW,238,10.0,19.0,24,0.00,,,0.00,0.000000,,2013-02-21 05:02:00,
2013-02-20 21:12:00,43.0,9.0,-100.00,WSW,238,10.0,19.0,24,0.00,,,0.00,0.000000,,2013-02-21 05:12:00,
2013-02-20 21:21:00,43.0,9.0,-100.00,WSW,238,10.0,19.0,24,0.00,,,0.00,0.000000,,2013-02-21 05:21:00,
2013-02-20 21:59:00,42.0,10.0,-100.00,SSW,203,0.0,17.0,27,0.00,,,0.00,0.000000,,2013-02-21 05:59:00,
2013-02-20 22:11:00,42.0,10.0,-100.00,SSW,203,0.0,17.0,27,0.00,,,0.00,0.000000,,2013-02-21 06:11:00,
2013-02-20 22:21:00,42.0,10.0,-100.00,SSW,203,0.0,17.0,27,0.00,,,0.00,0.000000,,2013-02-21 06:21:00,
2013-02-20 22:51:00,41.0,8.0,-100.00,SW,233,9.0,20.0,25,0.00,,,-99.99,0.000000,,2013-02-21 06:51:00,
2013-02-20 23:01:00,41.0,8.0,-100.00,SW,233,9.0,20.0,25,0.00,,,-99.99,0.000000,,2013-02-21 07:01:00,
2013-02-20 23:11:00,41.0,8.0,-100.00,SW,233,9.0,20.0,25,0.00,,,-99.99,0.000000,,2013-02-21 07:11:00,
2013-02-20 23:21:00,41.0,8.0,-100.00,SW,233,9.0,20.0,25,0.00,,,-99.99,0.000000,,2013-02-21 07:21:00,
2013-02-20 23:52:00,41.0,7.0,-100.00,WSW,251,10.0,21.0,24,0.00,,,0.00,0.000000,,2013-02-21 07:52:00,